createdAt,value
2022-11-26T00:01:18.233Z,7.37
2022-11-26T00:03:46.092Z,7.97
2022-11-26T00:06:22.534Z,8.37
2022-11-26T00:08:50.097Z,9.00
2022-11-26T00:11:17.706Z,12.60
2022-11-26T00:13:45.371Z,8.27
2022-11-26T00:16:15.073Z,7.97
2022-11-26T00:18:42.994Z,7.13
2022-11-26T00:21:14.809Z,6.00
2022-11-26T00:23:42.342Z,9.77
2022-11-26T00:26:13.043Z,7.53
2022-11-26T00:28:43.274Z,7.73
2022-11-26T00:31:13.714Z,5.97
2022-11-26T00:33:42.652Z,6.17
2022-11-26T00:36:15.142Z,6.53
2022-11-26T00:38:42.698Z,10.00
2022-11-26T00:41:13.417Z,9.43
2022-11-26T00:43:40.881Z,7.33
2022-11-26T00:46:10.472Z,6.70
2022-11-26T00:48:37.975Z,8.83
2022-11-26T00:51:07.070Z,8.57
2022-11-26T00:53:34.502Z,6.73
2022-11-26T00:56:02.505Z,8.60
2022-11-26T00:58:30.795Z,6.40
2022-11-26T01:00:59.311Z,6.93
2022-11-26T01:03:26.884Z,8.07
2022-11-26T01:05:55.538Z,7.40
2022-11-26T01:08:28.312Z,6.47
2022-11-26T01:10:55.776Z,9.00
2022-11-26T01:13:23.252Z,9.00
2022-11-26T01:15:50.751Z,6.83
2022-11-26T01:18:19.429Z,7.43
2022-11-26T01:20:47.066Z,7.27
2022-11-26T01:23:16.742Z,9.27
2022-11-26T01:25:46.277Z,7.33
2022-11-26T01:28:14.736Z,6.70
2022-11-26T01:30:42.508Z,8.13
2022-11-26T01:33:10.038Z,6.60
2022-11-26T01:35:37.722Z,6.63
2022-11-26T01:38:05.548Z,7.13
2022-11-26T01:40:50.438Z,6.43
2022-11-26T01:43:21.316Z,7.23
2022-11-26T01:45:48.846Z,7.00
2022-11-26T01:48:27.107Z,8.23
2022-11-26T01:50:59.409Z,8.33
2022-11-26T01:53:29.855Z,7.03
2022-11-26T01:56:00.887Z,6.60
2022-11-26T01:58:39.701Z,6.20
2022-11-26T02:01:08.061Z,7.63
2022-11-26T02:03:38.250Z,7.80
2022-11-26T02:06:07.917Z,7.40
2022-11-26T02:08:35.710Z,10.73
2022-11-26T02:11:18.419Z,6.60
2022-11-26T02:13:47.449Z,8.53
2022-11-26T02:16:18.967Z,7.67
2022-11-26T02:18:53.219Z,7.83
2022-11-26T02:21:24.758Z,9.63
2022-11-26T02:24:00.472Z,8.13
2022-11-26T02:26:46.798Z,7.93
2022-11-26T02:29:24.669Z,7.50
2022-11-26T02:31:56.874Z,7.43
2022-11-26T02:34:28.892Z,9.73
2022-11-26T02:36:59.897Z,9.63
2022-11-26T02:39:28.487Z,8.43
2022-11-26T02:41:57.527Z,9.50
2022-11-26T02:44:26.490Z,9.87
2022-11-26T02:46:57.831Z,8.33
2022-11-26T02:49:25.953Z,9.43
2022-11-26T02:51:55.497Z,8.33
2022-11-26T02:54:23.603Z,8.47
2022-11-26T02:56:51.733Z,10.33
2022-11-26T02:59:19.522Z,8.50
2022-11-26T03:01:49.391Z,8.13
2022-11-26T03:04:20.822Z,8.00
2022-11-26T03:06:48.862Z,11.47
2022-11-26T03:09:16.906Z,11.37
2022-11-26T03:11:44.377Z,11.73
2022-11-26T03:14:12.099Z,8.97
2022-11-26T03:16:39.627Z,8.73
2022-11-26T03:19:07.153Z,12.33
2022-11-26T03:21:36.021Z,9.83
2022-11-26T03:24:03.487Z,9.63
2022-11-26T03:26:30.972Z,10.77
2022-11-26T03:28:58.416Z,14.67
2022-11-26T03:31:25.942Z,9.70
2022-11-26T03:33:53.402Z,12.97
2022-11-26T03:36:20.866Z,9.80
2022-11-26T03:38:49.658Z,9.73
2022-11-26T03:41:17.130Z,11.37
2022-11-26T03:43:44.590Z,13.17
2022-11-26T03:46:12.070Z,9.70
2022-11-26T03:48:39.598Z,9.80
2022-11-26T03:51:07.449Z,11.33
2022-11-26T03:53:34.959Z,11.63
2022-11-26T03:56:04.218Z,10.83
2022-11-26T03:58:31.676Z,10.30
2022-11-26T04:00:59.152Z,9.63
2022-11-26T04:03:26.732Z,10.57
2022-11-26T04:05:54.234Z,9.23
2022-11-26T04:08:21.669Z,11.43
2022-11-26T04:10:49.078Z,9.60
2022-11-26T04:13:17.846Z,9.87
2022-11-26T04:15:45.281Z,8.83
2022-11-26T04:18:12.689Z,10.50
2022-11-26T04:20:40.156Z,9.83
2022-11-26T04:23:07.633Z,9.30
2022-11-26T04:25:35.077Z,9.27
2022-11-26T04:28:02.645Z,9.90
2022-11-26T04:30:31.450Z,9.53
2022-11-26T04:32:58.906Z,9.33
2022-11-26T04:35:26.378Z,9.33
2022-11-26T04:37:53.799Z,9.73
2022-11-26T04:40:21.293Z,8.40
2022-11-26T04:42:48.797Z,12.13
2022-11-26T04:45:16.323Z,9.90
2022-11-26T04:47:45.146Z,9.43
2022-11-26T04:50:13.186Z,9.77
2022-11-26T04:52:40.623Z,8.23
2022-11-26T04:55:08.321Z,9.57
2022-11-26T04:57:35.751Z,8.80
2022-11-26T05:00:03.399Z,9.93
2022-11-26T05:02:30.917Z,10.13
2022-11-26T05:04:59.851Z,10.47
2022-11-26T05:07:27.322Z,9.13
2022-11-26T05:09:54.775Z,8.70
2022-11-26T05:12:22.187Z,9.43
2022-11-26T05:14:49.646Z,8.63
2022-11-26T05:17:17.226Z,9.87
2022-11-26T05:19:45.746Z,9.27
2022-11-26T05:22:14.549Z,10.97
2022-11-26T05:24:42.026Z,9.47
2022-11-26T05:27:09.490Z,9.37
2022-11-26T05:29:36.950Z,8.87
2022-11-26T05:32:04.798Z,9.30
2022-11-26T05:34:32.486Z,8.63
2022-11-26T05:36:59.956Z,8.13
2022-11-26T05:39:28.915Z,10.73
2022-11-26T05:41:56.374Z,11.33
2022-11-26T05:44:23.845Z,9.77
2022-11-26T05:46:51.401Z,11.43
2022-11-26T05:49:19.046Z,9.70
2022-11-26T05:51:46.502Z,9.17
2022-11-26T05:54:14.773Z,9.70
2022-11-26T05:56:44.139Z,8.20
2022-11-26T05:59:11.761Z,8.27
2022-11-26T06:01:39.492Z,12.40
2022-11-26T06:04:06.977Z,10.83
2022-11-26T06:06:34.511Z,8.17
2022-11-26T06:09:01.998Z,9.53
2022-11-26T06:11:29.517Z,8.47
2022-11-26T06:13:58.334Z,10.23
2022-11-26T06:16:25.931Z,7.53
2022-11-26T06:18:53.425Z,8.50
2022-11-26T06:21:20.896Z,9.47
2022-11-26T06:23:55.968Z,9.20
2022-11-26T06:26:26.462Z,11.23
2022-11-26T06:28:53.954Z,9.63
2022-11-26T06:31:22.814Z,10.03
2022-11-26T06:33:53.747Z,10.53
2022-11-26T06:36:21.214Z,9.03
2022-11-26T06:38:48.665Z,8.83
2022-11-26T06:41:16.179Z,9.00
2022-11-26T06:43:43.667Z,10.40
2022-11-26T06:46:11.823Z,9.70
2022-11-26T06:48:41.012Z,10.73
2022-11-26T06:51:09.445Z,10.60
2022-11-26T06:53:37.093Z,9.93
2022-11-26T06:56:05.493Z,8.47
2022-11-26T06:58:33.085Z,8.80
2022-11-26T07:01:00.700Z,9.50
2022-11-26T07:03:33.242Z,8.40
2022-11-26T07:06:02.340Z,11.37
2022-11-26T07:08:29.929Z,8.77
2022-11-26T07:10:57.426Z,10.57
2022-11-26T07:13:25.054Z,9.30
2022-11-26T07:15:52.529Z,9.67
2022-11-26T07:18:19.979Z,11.93
2022-11-26T07:20:47.410Z,9.23
2022-11-26T07:23:16.214Z,9.97
2022-11-26T07:25:43.635Z,10.07
2022-11-26T07:28:11.071Z,10.77
2022-11-26T07:30:38.562Z,13.13
2022-11-26T07:33:06.044Z,13.43
2022-11-26T07:35:33.585Z,10.40
2022-11-26T07:38:01.072Z,9.83
2022-11-26T07:40:29.970Z,8.90
2022-11-26T07:42:57.433Z,9.50
2022-11-26T07:45:25.192Z,10.10
2022-11-26T07:47:52.677Z,11.50
2022-11-26T07:50:20.126Z,11.27
2022-11-26T07:52:47.595Z,10.27
2022-11-26T07:55:15.076Z,10.73
2022-11-26T07:57:43.872Z,10.60
2022-11-26T08:00:11.801Z,16.60
2022-11-26T08:02:42.256Z,20.03
2022-11-26T08:05:09.887Z,17.77
2022-11-26T08:07:37.422Z,18.37
2022-11-26T08:10:05.628Z,17.67
2022-11-26T08:12:33.067Z,18.27
2022-11-26T08:15:01.884Z,21.53
2022-11-26T08:17:29.339Z,20.83
2022-11-26T08:19:56.748Z,20.90
2022-11-26T08:22:24.203Z,19.53
2022-11-26T08:24:51.803Z,15.60
2022-11-26T08:27:19.306Z,14.00
2022-11-26T08:29:46.761Z,15.10
2022-11-26T08:32:15.609Z,15.73
2022-11-26T08:34:43.157Z,17.20
2022-11-26T08:37:10.603Z,20.43
2022-11-26T08:39:38.042Z,15.70
2022-11-26T08:42:05.568Z,15.77
2022-11-26T08:44:33.025Z,17.90
2022-11-26T08:47:00.493Z,16.17
2022-11-26T08:49:29.754Z,15.63
2022-11-26T08:51:57.390Z,15.63
2022-11-26T08:54:25.104Z,15.17
2022-11-26T08:56:52.530Z,15.27
2022-11-26T08:59:22.859Z,17.80
2022-11-26T09:01:50.446Z,16.50
2022-11-26T09:04:17.957Z,17.00
2022-11-26T09:06:46.750Z,14.67
2022-11-26T09:09:14.766Z,15.60
2022-11-26T09:11:43.657Z,15.23
2022-11-26T09:14:11.213Z,16.30
2022-11-26T09:16:39.056Z,14.53
2022-11-26T09:19:07.049Z,16.83
2022-11-26T09:21:35.005Z,13.20
2022-11-26T09:24:04.301Z,14.43
2022-11-26T09:26:31.825Z,13.50
2022-11-26T09:28:59.324Z,12.63
2022-11-26T09:31:26.888Z,12.07
2022-11-26T09:33:56.197Z,13.03
2022-11-26T09:36:23.688Z,11.63
2022-11-26T09:38:53.848Z,13.60
2022-11-26T09:41:30.473Z,13.50
2022-11-26T09:44:08.213Z,12.00
2022-11-26T09:46:50.841Z,13.50
2022-11-26T09:49:25.726Z,13.83
2022-11-26T09:51:56.333Z,12.57
2022-11-26T09:54:24.972Z,11.60
2022-11-26T09:56:58.506Z,13.23
2022-11-26T09:59:27.536Z,12.03
2022-11-26T10:01:55.021Z,14.17
2022-11-26T10:04:24.972Z,11.20
2022-11-26T10:06:58.323Z,12.27
2022-11-26T10:09:36.859Z,10.67
2022-11-26T10:12:24.431Z,9.90
2022-11-26T10:14:57.760Z,10.10
2022-11-26T10:17:30.603Z,11.37
2022-11-26T10:20:05.198Z,7.80
2022-11-26T10:22:35.090Z,6.13
2022-11-26T10:25:03.981Z,7.60
2022-11-26T10:27:34.601Z,7.20
2022-11-26T10:30:04.060Z,7.40
2022-11-26T10:32:33.153Z,7.13
2022-11-26T10:35:00.583Z,8.37
2022-11-26T10:37:28.674Z,7.80
2022-11-26T10:40:01.968Z,6.17
2022-11-26T10:42:40.301Z,7.50
2022-11-26T10:45:17.202Z,9.53
2022-11-26T10:47:44.670Z,4.33
2022-11-26T10:53:07.271Z,7.07
2022-11-26T10:55:36.889Z,9.57
2022-11-26T10:58:06.669Z,6.77
2022-11-26T11:00:37.630Z,9.40
2022-11-26T11:03:06.373Z,8.07
2022-11-26T11:05:34.509Z,10.13
2022-11-26T11:08:02.069Z,6.80
2022-11-26T11:10:29.657Z,7.63
2022-11-26T11:13:11.336Z,14.00
2022-11-26T11:15:41.128Z,11.03
2022-11-26T11:18:15.640Z,12.90
2022-11-26T11:20:43.830Z,11.87
2022-11-26T11:23:19.877Z,9.77
2022-11-26T11:25:48.222Z,10.53
2022-11-26T11:28:17.780Z,13.00
2022-11-26T11:30:46.947Z,10.27
2022-11-26T11:33:21.713Z,11.13
2022-11-26T11:35:59.713Z,9.20
2022-11-26T11:38:28.043Z,13.70
2022-11-26T11:40:55.649Z,9.40
2022-11-26T11:43:24.782Z,8.23
2022-11-26T11:46:01.786Z,9.50
2022-11-26T11:48:32.899Z,11.40
2022-11-26T11:51:05.878Z,11.47
2022-11-26T11:53:36.071Z,8.57
2022-11-26T11:56:15.829Z,12.90
2022-11-26T11:58:54.969Z,10.17
2022-11-26T12:01:27.552Z,10.17
2022-11-26T12:04:08.405Z,8.17
2022-11-26T12:06:43.203Z,10.67
2022-11-26T12:09:17.502Z,8.87
2022-11-26T12:11:51.569Z,7.97
2022-11-26T12:14:21.219Z,7.83
2022-11-26T12:16:53.996Z,7.87
2022-11-26T12:19:26.346Z,7.93
2022-11-26T12:21:56.177Z,11.53
2022-11-26T12:24:25.864Z,11.03
2022-11-26T12:26:54.626Z,10.83
2022-11-26T12:29:27.070Z,10.43
2022-11-26T12:31:57.651Z,8.63
2022-11-26T12:34:29.808Z,8.53
2022-11-26T12:36:59.470Z,11.30
2022-11-26T12:39:33.538Z,11.07
2022-11-26T12:42:03.522Z,8.03
2022-11-26T12:44:33.203Z,8.67
2022-11-26T12:47:09.274Z,9.57
2022-11-26T12:49:40.073Z,10.10
2022-11-26T12:52:12.642Z,8.93
2022-11-26T12:54:42.837Z,8.23
2022-11-26T12:57:13.964Z,7.90
2022-11-26T12:59:45.153Z,6.63
2022-11-26T13:02:18.790Z,7.10
2022-11-26T13:04:46.297Z,8.37
2022-11-26T13:07:19.173Z,10.37
2022-11-26T13:09:55.702Z,7.57
2022-11-26T13:12:28.325Z,8.87
2022-11-26T13:14:58.541Z,6.13
2022-11-26T13:17:31.749Z,6.93
2022-11-26T13:20:05.246Z,7.27
2022-11-26T13:22:47.102Z,8.00
2022-11-26T13:25:35.593Z,7.17
2022-11-26T13:28:07.275Z,5.57
2022-11-26T13:30:38.838Z,6.47
2022-11-26T13:33:19.386Z,5.83
2022-11-26T13:35:58.744Z,8.47
2022-11-26T13:38:32.330Z,8.37
2022-11-26T13:41:23.568Z,7.20
2022-11-26T13:44:07.268Z,6.93
2022-11-26T13:46:36.112Z,5.07
2022-11-26T13:49:08.246Z,6.20
2022-11-26T13:51:39.129Z,7.97
2022-11-26T13:54:09.959Z,7.17
2022-11-26T13:56:38.201Z,7.07
2022-11-26T13:59:08.569Z,5.53
2022-11-26T14:01:39.964Z,5.10
2022-11-26T14:04:09.706Z,6.87
2022-11-26T14:06:37.264Z,5.63
2022-11-26T14:09:05.853Z,8.13
2022-11-26T14:11:56.706Z,6.77
2022-11-26T14:14:34.072Z,5.40
2022-11-26T14:17:19.989Z,6.70
2022-11-26T14:20:08.992Z,5.03
2022-11-26T14:22:37.572Z,5.77
2022-11-26T14:25:06.707Z,6.80
2022-11-26T14:27:34.709Z,6.90
2022-11-26T14:30:20.292Z,7.27
2022-11-26T14:32:51.536Z,4.73
2022-11-26T14:35:23.534Z,7.03
2022-11-26T14:37:51.668Z,8.50
2022-11-26T14:40:21.430Z,9.40
2022-11-26T14:42:48.893Z,6.90
2022-11-26T14:45:17.404Z,6.73
2022-11-26T14:47:45.628Z,6.00
2022-11-26T14:50:14.551Z,5.00
2022-11-26T14:52:44.151Z,6.20
2022-11-26T14:55:17.453Z,7.97
2022-11-26T14:57:47.305Z,7.57
2022-11-26T15:00:22.957Z,6.07
2022-11-26T15:02:50.629Z,5.43
2022-11-26T15:05:19.317Z,4.40
2022-11-26T15:07:57.261Z,5.27
2022-11-26T15:10:24.774Z,5.37
2022-11-26T15:12:53.195Z,7.80
2022-11-26T15:15:22.022Z,4.63
2022-11-26T15:17:50.951Z,4.13
2022-11-26T15:20:19.025Z,5.33
2022-11-26T15:22:51.255Z,5.50
2022-11-26T15:25:20.588Z,6.43
2022-11-26T15:27:59.830Z,10.93
2022-11-26T15:30:28.575Z,6.77
2022-11-26T15:33:03.252Z,6.57
2022-11-26T15:35:32.496Z,7.37
2022-11-26T15:38:01.334Z,6.07
2022-11-26T15:40:31.446Z,7.33
2022-11-26T15:43:00.469Z,5.20
2022-11-26T15:45:33.937Z,5.10
2022-11-26T15:48:01.605Z,5.07
2022-11-26T15:50:31.115Z,5.93
2022-11-26T15:53:00.544Z,6.93
2022-11-26T15:55:30.974Z,5.77
2022-11-26T15:58:00.181Z,8.70
2022-11-26T16:00:31.706Z,8.13
2022-11-26T16:02:59.373Z,7.37
2022-11-26T16:05:29.889Z,7.07
2022-11-26T16:07:58.422Z,7.60
2022-11-26T16:10:27.012Z,7.33
2022-11-26T16:13:10.134Z,5.77
2022-11-26T16:15:38.002Z,7.40
2022-11-26T16:18:05.671Z,6.27
2022-11-26T16:20:33.098Z,6.83
2022-11-26T16:23:01.686Z,6.53
2022-11-26T16:25:29.894Z,6.53
2022-11-26T16:28:04.149Z,8.10
2022-11-26T16:30:33.528Z,9.67
2022-11-26T16:33:02.064Z,9.40
2022-11-26T16:35:45.341Z,10.43
2022-11-26T16:38:18.694Z,8.73
2022-11-26T16:40:46.180Z,8.17
2022-11-26T16:43:13.637Z,9.40
2022-11-26T16:45:42.532Z,8.03
2022-11-26T16:48:16.647Z,7.53
2022-11-26T16:50:44.079Z,7.20
2022-11-26T16:53:11.546Z,7.37
2022-11-26T16:55:39.006Z,7.20
2022-11-26T16:58:06.569Z,11.27
2022-11-26T17:00:35.187Z,8.53
2022-11-26T17:03:04.059Z,9.57
2022-11-26T17:05:31.638Z,9.77
2022-11-26T17:08:01.033Z,11.57
2022-11-26T17:10:30.260Z,7.03
2022-11-26T17:12:58.045Z,8.63
2022-11-26T17:15:25.536Z,7.27
2022-11-26T17:17:54.471Z,8.50
2022-11-26T17:20:25.434Z,8.87
2022-11-26T17:22:52.989Z,9.97
2022-11-26T17:25:21.013Z,8.17
2022-11-26T17:27:48.955Z,9.53
2022-11-26T17:30:17.941Z,8.50
2022-11-26T17:32:45.343Z,8.30
2022-11-26T17:35:12.813Z,9.70
2022-11-26T17:37:41.900Z,10.97
2022-11-26T17:40:13.022Z,12.40
2022-11-26T17:42:40.545Z,10.90
2022-11-26T17:45:08.556Z,9.70
2022-11-26T17:47:35.996Z,10.20
2022-11-26T17:50:03.473Z,10.70
2022-11-26T17:52:30.973Z,10.83
2022-11-26T17:54:59.750Z,9.23
2022-11-26T17:57:28.265Z,12.20
2022-11-26T17:59:55.890Z,10.80
2022-11-26T18:02:23.383Z,10.47
2022-11-26T18:04:50.914Z,9.70
2022-11-26T18:07:19.223Z,7.50
2022-11-26T18:09:47.397Z,9.60
2022-11-26T18:12:24.441Z,10.27
2022-11-26T18:14:52.638Z,11.23
2022-11-26T18:17:20.266Z,9.67
2022-11-26T18:19:48.067Z,9.77
2022-11-26T18:22:16.619Z,12.67
2022-11-26T18:24:55.820Z,14.87
2022-11-26T18:27:26.550Z,12.93
2022-11-26T18:29:54.015Z,12.43
2022-11-26T18:32:21.677Z,17.17
2022-11-26T18:34:49.583Z,17.90
2022-11-26T18:37:17.122Z,14.27
2022-11-26T18:39:44.581Z,12.63
2022-11-26T18:45:01.606Z,15.17
2022-11-26T18:47:29.039Z,12.27
2022-11-26T18:49:56.458Z,11.30
2022-11-26T18:52:23.896Z,9.43
2022-11-26T18:54:51.323Z,15.00
2022-11-26T18:57:18.891Z,15.63
2022-11-26T18:59:46.741Z,12.27
2022-11-26T19:02:15.655Z,13.00
2022-11-26T19:04:43.149Z,13.97
2022-11-26T19:07:10.913Z,13.27
2022-11-26T19:09:38.812Z,11.53
2022-11-26T19:12:06.959Z,13.73
2022-11-26T19:14:34.441Z,11.50
2022-11-26T19:17:01.964Z,13.40
2022-11-26T19:19:32.089Z,18.30
2022-11-26T19:22:01.553Z,17.63
2022-11-26T19:24:29.904Z,23.00
2022-11-26T19:26:57.463Z,13.83
2022-11-26T19:29:25.040Z,13.77
2022-11-26T19:31:52.538Z,11.33
2022-11-26T19:34:20.000Z,13.40
2022-11-26T19:36:49.344Z,14.30
2022-11-26T19:39:18.158Z,15.37
2022-11-26T19:41:45.618Z,17.93
2022-11-26T19:44:13.028Z,14.17
2022-11-26T19:46:41.790Z,14.17
2022-11-26T19:49:11.770Z,12.80
2022-11-26T19:51:39.448Z,12.27
2022-11-26T19:54:08.691Z,10.97
2022-11-26T19:56:36.494Z,11.27
2022-11-26T19:59:04.512Z,11.17
2022-11-26T20:01:32.850Z,12.13
2022-11-26T20:04:01.854Z,12.07
2022-11-26T20:06:30.269Z,10.50
2022-11-26T20:08:59.016Z,11.87
2022-11-26T20:11:28.416Z,13.70
2022-11-26T20:13:56.186Z,17.20
2022-11-26T20:16:25.182Z,12.67
2022-11-26T20:18:53.013Z,14.63
2022-11-26T20:21:21.274Z,19.37
2022-11-26T20:23:49.171Z,15.30
2022-11-26T20:26:17.384Z,21.77
2022-11-26T20:28:46.218Z,14.20
2022-11-26T20:31:16.345Z,18.03
2022-11-26T20:33:46.764Z,16.40
2022-11-26T20:36:15.334Z,17.67
2022-11-26T20:38:42.835Z,20.87
2022-11-26T20:41:10.986Z,17.87
2022-11-26T20:43:38.492Z,19.07
2022-11-26T20:46:08.200Z,19.20
2022-11-26T20:48:36.310Z,16.17
2022-11-26T20:51:04.274Z,19.57
2022-11-26T20:53:31.781Z,17.53
2022-11-26T20:55:59.302Z,19.00
2022-11-26T20:58:27.304Z,17.27
2022-11-26T21:00:55.207Z,16.47
2022-11-26T21:03:24.631Z,14.80
2022-11-26T21:05:52.126Z,16.53
2022-11-26T21:08:19.884Z,17.80
2022-11-26T21:10:47.550Z,14.83
2022-11-26T21:13:16.245Z,14.70
2022-11-26T21:15:44.321Z,22.03
2022-11-26T21:18:11.974Z,14.37
2022-11-26T21:20:41.244Z,14.67
2022-11-26T21:23:09.202Z,12.57
2022-11-26T21:25:37.350Z,13.90
2022-11-26T21:28:05.213Z,13.60
2022-11-26T21:30:32.686Z,14.00
2022-11-26T21:33:03.266Z,12.80
2022-11-26T21:35:33.589Z,12.23
2022-11-26T21:38:02.776Z,11.80
2022-11-26T21:40:30.298Z,12.10
2022-11-26T21:42:57.756Z,14.37
2022-11-26T21:45:25.231Z,12.30
2022-11-26T21:47:52.865Z,12.03
2022-11-26T21:50:20.585Z,11.13
2022-11-26T21:52:48.018Z,13.37
2022-11-26T21:55:16.982Z,13.57
2022-11-26T21:57:44.478Z,9.97
2022-11-26T22:00:12.359Z,9.80
2022-11-26T22:02:39.919Z,8.43
2022-11-26T22:05:07.669Z,9.43
2022-11-26T22:07:35.192Z,9.47
2022-11-26T22:10:02.921Z,9.17
2022-11-26T22:12:31.714Z,12.87
2022-11-26T22:14:59.126Z,9.03
2022-11-26T22:17:26.575Z,9.20
2022-11-26T22:19:54.019Z,10.07
2022-11-26T22:22:21.454Z,9.13
2022-11-26T22:24:49.239Z,10.10
2022-11-26T22:27:16.726Z,10.80
2022-11-26T22:29:45.557Z,9.70
2022-11-26T22:32:13.075Z,9.97
2022-11-26T22:34:40.634Z,11.97
2022-11-26T22:37:08.043Z,10.83
2022-11-26T22:39:35.471Z,10.23
2022-11-26T22:42:03.654Z,9.20
2022-11-26T22:44:31.083Z,8.70
2022-11-26T22:46:59.859Z,8.77
2022-11-26T22:49:27.428Z,9.23
2022-11-26T22:51:55.030Z,8.87
2022-11-26T22:54:23.399Z,10.03
2022-11-26T22:56:50.881Z,9.20
2022-11-26T22:59:18.315Z,10.37
2022-11-26T23:01:45.801Z,8.83
2022-11-26T23:04:14.634Z,9.87
2022-11-26T23:06:42.075Z,9.23
2022-11-26T23:09:10.376Z,9.33
2022-11-26T23:11:39.713Z,8.00
2022-11-26T23:14:09.319Z,10.47
2022-11-26T23:16:37.594Z,10.57
2022-11-26T23:19:05.646Z,9.27
2022-11-26T23:21:35.226Z,9.83
2022-11-26T23:24:02.746Z,10.33
2022-11-26T23:26:31.139Z,9.40
2022-11-26T23:28:59.045Z,10.73
2022-11-26T23:31:27.768Z,9.20
2022-11-26T23:33:55.337Z,8.67
2022-11-26T23:36:22.993Z,9.43
2022-11-26T23:38:51.857Z,8.37
2022-11-26T23:41:19.401Z,8.83
2022-11-26T23:43:47.049Z,11.00
2022-11-26T23:46:15.670Z,9.00
2022-11-26T23:48:43.460Z,9.03
2022-11-26T23:51:12.012Z,8.47
2022-11-26T23:53:40.490Z,8.70
2022-11-26T23:56:13.730Z,9.17
2022-11-26T23:58:41.184Z,9.13
